sensor_id;sensor_type;location;lat;lon;timestamp;pressure;altitude;pressure_sealevel;temperature;humidity
53940;BME280;39850;43.324;21.916;2023-02-15T00:02:56;1007.0;;;6.1;74.0
53940;BME280;39850;43.324;21.916;2023-02-15T00:07:32;1007.0;;;6.1;74.0
53940;BME280;39850;43.324;21.916;2023-02-15T00:40:04;1007.0;;;5.5;71.0
53940;BME280;39850;43.324;21.916;2023-02-15T00:44:41;1007.0;;;5.5;71.0
53940;BME280;39850;43.324;21.916;2023-02-15T00:49:18;1007.0;;;5.0;72.0
53940;BME280;39850;43.324;21.916;2023-02-15T00:53:55;1007.0;;;5.0;72.0
53940;BME280;39850;43.324;21.916;2023-02-15T00:58:32;1007.0;;;4.5;73.0
53940;BME280;39850;43.324;21.916;2023-02-15T01:03:14;1007.0;;;4.5;73.0
53940;BME280;39850;43.324;21.916;2023-02-15T01:07:50;1007.0;;;4.5;73.0
53940;BME280;39850;43.324;21.916;2023-02-15T01:12:27;1007.0;;;4.4;73.0
53940;BME280;39850;43.324;21.916;2023-02-15T01:17:03;1007.0;;;4.4;73.0
53940;BME280;39850;43.324;21.916;2023-02-15T01:21:40;1007.0;;;4.4;74.0
53940;BME280;39850;43.324;21.916;2023-02-15T01:26:18;1007.0;;;4.4;74.0
53940;BME280;39850;43.324;21.916;2023-02-15T02:19:46;1007.0;;;4.5;77.0
53940;BME280;39850;43.324;21.916;2023-02-15T02:26:08;1007.0;;;4.5;77.0
53940;BME280;39850;43.324;21.916;2023-02-15T02:32:16;1007.0;;;4.5;77.0
53940;BME280;39850;43.324;21.916;2023-02-15T02:37:30;1007.0;;;4.5;77.0
53940;BME280;39850;43.324;21.916;2023-02-15T02:42:39;1007.0;;;4.5;77.0
53940;BME280;39850;43.324;21.916;2023-02-15T02:47:43;1007.0;;;4.5;77.0
53940;BME280;39850;43.324;21.916;2023-02-15T03:31:06;1008.0;;;4.5;78.0
53940;BME280;39850;43.324;21.916;2023-02-15T03:36:11;1008.0;;;4.5;78.0
53940;BME280;39850;43.324;21.916;2023-02-15T03:41:04;1008.0;;;4.5;78.0
53940;BME280;39850;43.324;21.916;2023-02-15T03:46:06;1008.0;;;4.5;78.0
53940;BME280;39850;43.324;21.916;2023-02-15T03:50:45;1008.0;;;4.5;78.0
53940;BME280;39850;43.324;21.916;2023-02-15T03:55:23;1008.0;;;4.5;78.0
53940;BME280;39850;43.324;21.916;2023-02-15T04:00:18;1008.0;;;4.5;79.0
53940;BME280;39850;43.324;21.916;2023-02-15T04:04:59;1008.0;;;4.5;79.0
53940;BME280;39850;43.324;21.916;2023-02-15T04:51:09;1008.0;;;4.5;81.0
53940;BME280;39850;43.324;21.916;2023-02-15T04:55:46;1008.0;;;4.5;81.0
53940;BME280;39850;43.324;21.916;2023-02-15T05:00:23;1008.0;;;4.5;81.0
53940;BME280;39850;43.324;21.916;2023-02-15T05:04:59;1008.0;;;4.5;81.0
53940;BME280;39850;43.324;21.916;2023-02-15T05:09:36;1008.0;;;4.5;81.0
53940;BME280;39850;43.324;21.916;2023-02-15T05:14:13;1008.0;;;4.5;81.0
53940;BME280;39850;43.324;21.916;2023-02-15T05:18:50;1008.0;;;4.5;81.0
53940;BME280;39850;43.324;21.916;2023-02-15T05:23:27;1008.0;;;4.5;81.0
53940;BME280;39850;43.324;21.916;2023-02-15T05:28:04;1008.0;;;4.5;81.0
53940;BME280;39850;43.324;21.916;2023-02-15T06:00:26;1008.0;;;4.5;80.0
53940;BME280;39850;43.324;21.916;2023-02-15T06:05:07;1008.0;;;4.5;80.0
53940;BME280;39850;43.324;21.916;2023-02-15T06:09:43;1008.0;;;4.5;81.0
53940;BME280;39850;43.324;21.916;2023-02-15T06:14:20;1008.0;;;4.5;81.0
53940;BME280;39850;43.324;21.916;2023-02-15T06:18:57;1008.0;;;4.5;81.0
53940;BME280;39850;43.324;21.916;2023-02-15T06:23:33;1008.0;;;4.5;81.0
53940;BME280;39850;43.324;21.916;2023-02-15T06:28:10;1008.0;;;4.5;81.0
53940;BME280;39850;43.324;21.916;2023-02-15T06:32:47;1008.0;;;4.5;82.0
53940;BME280;39850;43.324;21.916;2023-02-15T06:37:24;1008.0;;;4.5;82.0
53940;BME280;39850;43.324;21.916;2023-02-15T06:42:01;1008.0;;;4.5;82.0
53940;BME280;39850;43.324;21.916;2023-02-15T06:46:37;1008.0;;;4.5;82.0
53940;BME280;39850;43.324;21.916;2023-02-15T07:42:01;1008.0;;;5.5;76.0
53940;BME280;39850;43.324;21.916;2023-02-15T07:46:37;1008.0;;;5.5;76.0
53940;BME280;39850;43.324;21.916;2023-02-15T07:51:15;1008.0;;;5.5;76.0
53940;BME280;39850;43.324;21.916;2023-02-15T07:55:52;1008.0;;;5.5;76.0
53940;BME280;39850;43.324;21.916;2023-02-15T08:00:29;1008.0;;;5.5;76.0
53940;BME280;39850;43.324;21.916;2023-02-15T08:05:08;1008.0;;;5.5;76.0
53940;BME280;39850;43.324;21.916;2023-02-15T08:51:37;1008.0;;;5.6;72.0
53940;BME280;39850;43.324;21.916;2023-02-15T08:56:14;1008.0;;;5.6;72.0
53940;BME280;39850;43.324;21.916;2023-02-15T09:00:51;1008.0;;;6.0;71.0
53940;BME280;39850;43.324;21.916;2023-02-15T09:05:27;1008.0;;;6.0;71.0
53940;BME280;39850;43.324;21.916;2023-02-15T09:10:07;1008.0;;;6.0;71.0
53940;BME280;39850;43.324;21.916;2023-02-15T09:14:43;1008.0;;;6.0;71.0
53940;BME280;39850;43.324;21.916;2023-02-15T09:19:24;1008.0;;;6.0;71.0
53940;BME280;39850;43.324;21.916;2023-02-15T09:24:10;1008.0;;;6.4;70.0
53940;BME280;39850;43.324;21.916;2023-02-15T09:29:00;1008.0;;;6.4;70.0
53940;BME280;39850;43.324;21.916;2023-02-15T10:05:21;1008.0;;;6.7;66.0
53940;BME280;39850;43.324;21.916;2023-02-15T10:10:41;1008.0;;;6.5;67.0
53940;BME280;39850;43.324;21.916;2023-02-15T10:16:06;1008.0;;;6.5;67.0
53940;BME280;39850;43.324;21.916;2023-02-15T10:21:36;1008.0;;;6.6;66.0
53940;BME280;39850;43.324;21.916;2023-02-15T10:26:44;1008.0;;;6.6;66.0
53940;BME280;39850;43.324;21.916;2023-02-15T10:31:43;1008.0;;;6.4;66.0
53940;BME280;39850;43.324;21.916;2023-02-15T10:37:24;1008.0;;;6.4;66.0
53940;BME280;39850;43.324;21.916;2023-02-15T10:43:02;1008.0;;;6.6;65.0
53940;BME280;39850;43.324;21.916;2023-02-15T10:49:01;1008.0;;;6.6;65.0
53940;BME280;39850;43.324;21.916;2023-02-15T11:20:38;1008.0;;;7.3;62.0
53940;BME280;39850;43.324;21.916;2023-02-15T11:25:34;1008.0;;;7.3;62.0
53940;BME280;39850;43.324;21.916;2023-02-15T11:30:36;1008.0;;;7.0;63.0
53940;BME280;39850;43.324;21.916;2023-02-15T11:35:48;1008.0;;;7.0;63.0
53940;BME280;39850;43.324;21.916;2023-02-15T11:40:48;1008.0;;;6.8;63.0
53940;BME280;39850;43.324;21.916;2023-02-15T11:45:34;1008.0;;;6.8;63.0
53940;BME280;39850;43.324;21.916;2023-02-15T11:50:25;1008.0;;;6.5;63.0
53940;BME280;39850;43.324;21.916;2023-02-15T11:55:22;1008.0;;;6.5;63.0
53940;BME280;39850;43.324;21.916;2023-02-15T12:00:36;1008.0;;;6.2;64.0
53940;BME280;39850;43.324;21.916;2023-02-15T12:05:27;1008.0;;;6.2;64.0
53940;BME280;39850;43.324;21.916;2023-02-15T12:44:26;1007.0;;;7.1;59.0
53940;BME280;39850;43.324;21.916;2023-02-15T12:49:20;1007.0;;;7.1;59.0
53940;BME280;39850;43.324;21.916;2023-02-15T12:53:57;1007.0;;;7.1;59.0
53940;BME280;39850;43.324;21.916;2023-02-15T12:58:40;1007.0;;;7.1;59.0
53940;BME280;39850;43.324;21.916;2023-02-15T13:03:23;1007.0;;;7.1;58.0
53940;BME280;39850;43.324;21.916;2023-02-15T13:08:19;1007.0;;;7.1;58.0
53940;BME280;39850;43.324;21.916;2023-02-15T13:13:00;1007.0;;;7.4;58.0
53940;BME280;39850;43.324;21.916;2023-02-15T13:17:37;1007.0;;;7.4;58.0
53940;BME280;39850;43.324;21.916;2023-02-15T13:22:38;1007.0;;;7.6;58.0
53940;BME280;39850;43.324;21.916;2023-02-15T13:27:39;1007.0;;;7.6;58.0
53940;BME280;39850;43.324;21.916;2023-02-15T14:05:24;1006.0;;;7.2;59.0
53940;BME280;39850;43.324;21.916;2023-02-15T14:10:58;1006.0;;;7.2;60.0
53940;BME280;39850;43.324;21.916;2023-02-15T14:16:03;1006.0;;;7.2;60.0
53940;BME280;39850;43.324;21.916;2023-02-15T14:21:21;1006.0;;;7.2;59.0
53940;BME280;39850;43.324;21.916;2023-02-15T14:26:35;1006.0;;;7.2;59.0
53940;BME280;39850;43.324;21.916;2023-02-15T14:31:46;1006.0;;;7.2;60.0
53940;BME280;39850;43.324;21.916;2023-02-15T14:36:31;1006.0;;;7.2;60.0
53940;BME280;39850;43.324;21.916;2023-02-15T14:41:37;1006.0;;;7.1;59.0
53940;BME280;39850;43.324;21.916;2023-02-15T14:46:54;1006.0;;;7.1;59.0
53940;BME280;39850;43.324;21.916;2023-02-15T15:22:44;1006.0;;;8.2;57.0
53940;BME280;39850;43.324;21.916;2023-02-15T15:27:51;1006.0;;;8.2;57.0
53940;BME280;39850;43.324;21.916;2023-02-15T15:32:36;1006.0;;;8.2;57.0
53940;BME280;39850;43.324;21.916;2023-02-15T15:38:45;1006.0;;;8.2;57.0
53940;BME280;39850;43.324;21.916;2023-02-15T15:45:41;1006.0;;;8.2;58.0
53940;BME280;39850;43.324;21.916;2023-02-15T15:50:22;1006.0;;;8.2;58.0
53940;BME280;39850;43.324;21.916;2023-02-15T15:55:22;1006.0;;;8.1;58.0
53940;BME280;39850;43.324;21.916;2023-02-15T16:00:03;1006.0;;;8.1;58.0
53940;BME280;39850;43.324;21.916;2023-02-15T16:04:40;1006.0;;;8.0;58.0
53940;BME280;39850;43.324;21.916;2023-02-15T16:09:27;1006.0;;;8.0;58.0
53940;BME280;39850;43.324;21.916;2023-02-15T16:44:19;1006.0;;;8.1;57.0
53940;BME280;39850;43.324;21.916;2023-02-15T16:49:18;1006.0;;;8.1;57.0
53940;BME280;39850;43.324;21.916;2023-02-15T16:54:17;1006.0;;;8.1;57.0
53940;BME280;39850;43.324;21.916;2023-02-15T16:59:00;1006.0;;;8.1;57.0
53940;BME280;39850;43.324;21.916;2023-02-15T17:03:40;1006.0;;;8.2;57.0
53940;BME280;39850;43.324;21.916;2023-02-15T17:08:32;1006.0;;;8.2;57.0
53940;BME280;39850;43.324;21.916;2023-02-15T17:13:17;1006.0;;;8.2;57.0
53940;BME280;39850;43.324;21.916;2023-02-15T17:18:14;1006.0;;;8.2;57.0
53940;BME280;39850;43.324;21.916;2023-02-15T17:22:54;1006.0;;;8.2;58.0
53940;BME280;39850;43.324;21.916;2023-02-15T17:27:33;1006.0;;;8.2;58.0
53940;BME280;39850;43.324;21.916;2023-02-15T18:04:53;1007.0;;;5.6;63.0
53940;BME280;39850;43.324;21.916;2023-02-15T18:09:29;1007.0;;;5.6;63.0
53940;BME280;39850;43.324;21.916;2023-02-15T18:14:10;1007.0;;;5.6;64.0
53940;BME280;39850;43.324;21.916;2023-02-15T18:18:47;1007.0;;;5.6;64.0
53940;BME280;39850;43.324;21.916;2023-02-15T18:23:24;1007.0;;;5.5;65.0
53940;BME280;39850;43.324;21.916;2023-02-15T18:28:00;1007.0;;;5.5;65.0
53940;BME280;39850;43.324;21.916;2023-02-15T18:32:38;1007.0;;;5.5;65.0
53940;BME280;39850;43.324;21.916;2023-02-15T18:37:21;1007.0;;;5.5;65.0
53940;BME280;39850;43.324;21.916;2023-02-15T18:41:59;1007.0;;;5.5;65.0
53940;BME280;39850;43.324;21.916;2023-02-15T18:46:36;1007.0;;;5.5;65.0
53940;BME280;39850;43.324;21.916;2023-02-15T18:51:23;1007.0;;;5.5;65.0
53940;BME280;39850;43.324;21.916;2023-02-15T19:24:12;1007.0;;;4.5;69.0
53940;BME280;39850;43.324;21.916;2023-02-15T19:28:51;1007.0;;;4.5;69.0
53940;BME280;39850;43.324;21.916;2023-02-15T19:33:29;1007.0;;;4.0;69.0
53940;BME280;39850;43.324;21.916;2023-02-15T19:38:26;1007.0;;;4.0;69.0
53940;BME280;39850;43.324;21.916;2023-02-15T19:43:21;1007.0;;;3.5;69.0
53940;BME280;39850;43.324;21.916;2023-02-15T19:48:01;1007.0;;;3.5;69.0
53940;BME280;39850;43.324;21.916;2023-02-15T19:52:38;1007.0;;;3.5;70.0
53940;BME280;39850;43.324;21.916;2023-02-15T19:57:16;1007.0;;;3.5;70.0
53940;BME280;39850;43.324;21.916;2023-02-15T20:01:56;1007.0;;;3.5;71.0
53940;BME280;39850;43.324;21.916;2023-02-15T20:06:34;1007.0;;;3.5;71.0
53940;BME280;39850;43.324;21.916;2023-02-15T20:11:13;1007.0;;;3.5;71.0
53940;BME280;39850;43.324;21.916;2023-02-15T20:44:31;1007.0;;;2.5;75.0
53940;BME280;39850;43.324;21.916;2023-02-15T20:49:07;1007.0;;;2.5;75.0
53940;BME280;39850;43.324;21.916;2023-02-15T20:53:46;1007.0;;;2.5;74.0
53940;BME280;39850;43.324;21.916;2023-02-15T20:58:29;1007.0;;;2.5;74.0
53940;BME280;39850;43.324;21.916;2023-02-15T21:03:21;1007.0;;;2.5;73.0
53940;BME280;39850;43.324;21.916;2023-02-15T21:08:01;1007.0;;;2.5;73.0
53940;BME280;39850;43.324;21.916;2023-02-15T21:12:38;1007.0;;;2.6;73.0
53940;BME280;39850;43.324;21.916;2023-02-15T21:17:16;1007.0;;;2.6;73.0
53940;BME280;39850;43.324;21.916;2023-02-15T21:21:55;1007.0;;;2.6;73.0
53940;BME280;39850;43.324;21.916;2023-02-15T21:26:32;1007.0;;;2.6;73.0
53940;BME280;39850;43.324;21.916;2023-02-15T21:31:22;1007.0;;;2.6;73.0
53940;BME280;39850;43.324;21.916;2023-02-15T22:13:11;1007.0;;;2.7;74.0
53940;BME280;39850;43.324;21.916;2023-02-15T22:17:51;1007.0;;;2.7;74.0
53940;BME280;39850;43.324;21.916;2023-02-15T22:22:28;1007.0;;;2.7;74.0
53940;BME280;39850;43.324;21.916;2023-02-15T22:27:19;1007.0;;;2.7;74.0
53940;BME280;39850;43.324;21.916;2023-02-15T22:31:58;1007.0;;;2.7;74.0
53940;BME280;39850;43.324;21.916;2023-02-15T22:36:35;1007.0;;;2.7;74.0
53940;BME280;39850;43.324;21.916;2023-02-15T22:41:13;1007.0;;;2.7;74.0
53940;BME280;39850;43.324;21.916;2023-02-15T22:45:54;1007.0;;;2.7;74.0
53940;BME280;39850;43.324;21.916;2023-02-15T22:50:33;1007.0;;;2.7;74.0
53940;BME280;39850;43.324;21.916;2023-02-15T23:23:31;1007.0;;;1.6;77.0
53940;BME280;39850;43.324;21.916;2023-02-15T23:28:30;1007.0;;;1.6;77.0
53940;BME280;39850;43.324;21.916;2023-02-15T23:33:12;1007.0;;;1.6;76.0
53940;BME280;39850;43.324;21.916;2023-02-15T23:37:49;1007.0;;;1.6;76.0
53940;BME280;39850;43.324;21.916;2023-02-15T23:42:34;1007.0;;;1.6;76.0
53940;BME280;39850;43.324;21.916;2023-02-15T23:47:29;1007.0;;;1.7;77.0
53940;BME280;39850;43.324;21.916;2023-02-15T23:52:11;1007.0;;;1.7;77.0
53940;BME280;39850;43.324;21.916;2023-02-15T23:57:00;1007.0;;;1.8;77.0
